Central, UT (84722)

3:27 PM MDT on August 24, 2016 (GMT -0600)
APRSWXNET | | Change Station

Elev 5337 ft 37.57 °N, 113.71 °W | Updated 28 minutes ago

Scattered Clouds
Scattered Clouds
84 °F
Feels Like 82 °F
N
4
Wind Variable Wind from SW
Gusts 15.0 mph

Today
High -- | Low -- °F
--% Chance of Precip.
Yesterday
High -- | Low -- °F
Precip. -- in
Pressure 29.93 in
Visibility 10.0 miles
Clouds Scattered Clouds 11000 ft
Heat Index 82 °F
Dew Point 44 °F
Humidity 25%
Rainfall in
Snow Depth Not available.
6:58 AM 8:13 PM
Waning Gibbous, 53% visible
METAR KCDC 242053Z AUTO 27012G20KT 230V300 10SM SCT110 29/M01 A3016 RMK AO2 WSHFT 2027 LTG DSNT N SLP135 T02941006 56018
Pressure 29.93 in
Visibility 10.0 miles
Clouds Scattered Clouds 11000 ft
Heat Index 82 °F
Dew Point 44 °F
Humidity 25%
Rainfall in
Snow Depth Not available.
6:58 AM 8:13 PM
Waning Gibbous, 53% visible
METAR KCDC 242053Z AUTO 27012G20KT 230V300 10SM SCT110 29/M01 A3016 RMK AO2 WSHFT 2027 LTG DSNT N SLP135 T02941006 56018

10-Day Weather Forecast

Almanac

Astronomy

Aug. 24, 2016 Rise Set
Actual Time
Civil Twilight
Nautical Twilight
Astronomical Twilight
Moon
Length of Visible Light
Length of Day
Tomorrow will be .
, % of the Moon is Illuminated

Today's Extremes

State Highs State Lows

Community

WunderPhotos

Upload Photos

1,934,719 photos uploaded!

WunderBlog® & News

Nearby

Air Quality

  Air Quality AQ Index Pollutant
Not available.

Snow Depth

Station Depth Elevation

Earthquake Activity

City Distance Mag. Time & Date
Minimum magnitude displayed is 2.5.

Coastal Water Temperatures

Place Temperature

Stations

Nearby Weather Stations

Station Location Temp. Windchill Dew Point Humidity Wind Precip. Elev Updated Type
                   

Watches & Warnings

There are currently no watches in effect.